Time;durP1;ratioP1;P1;durP2;ratioP2;P2;SDS_P1;SDS_P2;PMS_P1;PMS_P2;Temp;Humidity;BMP_temperature;BMP_pressure;BME280_temperature;BME280_humidity;BME280_pressure;Samples;Min_cycle;Max_cycle;Signal;HPM_P1;HPM_P2
2021/07/11 00:00:09;;;;;;;15.10;7.25;;;16.20;99.90;;;;;;5041358;28;19920;-88
2021/07/11 00:02:42;;;;;;;14.10;7.13;;;16.20;99.90;;;;;;5004141;28;20050;-88
2021/07/11 00:05:16;;;;;;;18.58;6.80;;;16.10;99.90;;;;;;5008062;28;20045;-89
2021/07/11 00:07:47;;;;;;;14.40;7.40;;;16.10;99.90;;;;;;5027066;28;20046;-88
2021/07/11 00:10:20;;;;;;;13.82;7.00;;;16.10;99.90;;;;;;5008656;28;20053;-89
2021/07/11 00:12:48;;;;;;;13.15;7.00;;;16.10;99.90;;;;;;5026339;28;20049;-87
2021/07/11 00:15:22;;;;;;;16.27;8.13;;;16.10;99.90;;;;;;5006171;28;20061;-88
2021/07/11 00:17:52;;;;;;;12.68;6.97;;;16.10;99.90;;;;;;5002589;28;20057;-88
2021/07/11 00:20:35;;;;;;;21.40;7.10;;;15.50;99.90;;;;;;5019117;28;20061;-88
2021/07/11 00:23:10;;;;;;;14.77;6.95;;;16.10;99.90;;;;;;5018245;28;20046;-88
2021/07/11 00:25:38;;;;;;;13.30;6.72;;;16.10;99.90;;;;;;5006022;28;20060;-88
2021/07/11 00:28:06;;;;;;;13.80;7.32;;;16.10;99.90;;;;;;5018179;28;20061;-88
2021/07/11 00:30:48;;;;;;;13.88;6.28;;;16.20;99.90;;;;;;4983205;28;20413;-88
2021/07/11 00:33:18;;;;;;;14.00;7.72;;;16.20;99.90;;;;;;4984125;28;20050;-88
2021/07/11 00:35:49;;;;;;;12.45;6.93;;;16.20;99.90;;;;;;5003232;28;20054;-88
2021/07/11 00:38:24;;;;;;;14.85;7.07;;;16.20;99.90;;;;;;4969608;28;20058;-88
2021/07/11 00:40:53;;;;;;;11.88;6.07;;;16.20;99.90;;;;;;5014456;28;20397;-88
2021/07/11 00:43:21;;;;;;;13.30;7.15;;;16.20;99.90;;;;;;4998352;28;20053;-88
2021/07/11 00:45:52;;;;;;;14.32;7.28;;;16.20;99.90;;;;;;4970452;28;20051;-89
2021/07/11 00:48:23;;;;;;;12.05;6.03;;;16.20;99.90;;;;;;5019418;28;20061;-88
2021/07/11 00:50:52;;;;;;;14.27;7.38;;;16.20;99.90;;;;;;5003278;28;20054;-88
2021/07/11 00:53:20;;;;;;;14.65;7.63;;;16.20;99.90;;;;;;5019871;28;20049;-87
2021/07/11 00:55:50;;;;;;;11.68;6.07;;;16.20;99.90;;;;;;5020356;28;20064;-87
2021/07/11 00:58:22;;;;;;;12.82;6.90;;;16.20;99.90;;;;;;5015909;28;20050;-88
2021/07/11 01:00:58;;;;;;;12.68;6.43;;;16.20;99.90;;;;;;5022903;28;20042;-89
2021/07/11 01:03:31;;;;;;;13.07;7.65;;;16.20;99.90;;;;;;5005511;28;20057;-88
2021/07/11 01:06:12;;;;;;;13.93;5.90;;;16.20;99.90;;;;;;4998429;28;20487;-87
2021/07/11 01:08:47;;;;;;;12.65;6.32;;;17.70;99.90;;;;;;5021257;28;20057;-87
2021/07/11 01:11:23;;;;;;;12.57;6.53;;;16.20;99.90;;;;;;5020351;28;20049;-87
2021/07/11 01:14:00;;;;;;;35.22;9.80;;;16.20;99.90;;;;;;5003078;28;20489;-88
2021/07/11 01:16:35;;;;;;;12.57;6.32;;;16.10;99.90;;;;;;5015102;28;20057;-88
2021/07/11 01:19:25;;;;;;;12.50;5.90;;;16.10;99.90;;;;;;4984654;28;20054;-88
2021/07/11 01:21:54;;;;;;;8.27;5.25;;;16.10;99.90;;;;;;5005356;28;20049;-87
2021/07/11 01:24:40;;;;;;;12.60;5.68;;;16.10;99.90;;;;;;5011582;28;20046;-88
2021/07/11 01:27:19;;;;;;;17.50;6.68;;;16.10;99.90;;;;;;4988619;28;20046;-88
2021/07/11 01:29:49;;;;;;;9.55;5.15;;;16.20;99.90;;;;;;5014892;28;20046;-87
2021/07/11 01:32:20;;;;;;;12.25;6.82;;;16.10;99.90;;;;;;5003157;28;20041;-88
2021/07/11 01:34:50;;;;;;;12.25;6.55;;;16.20;99.90;;;;;;4969111;28;20434;-89
2021/07/11 01:37:18;;;;;;;11.23;6.05;;;16.10;99.90;;;;;;4951939;28;20062;-87
2021/07/11 01:39:51;;;;;;;11.20;6.35;;;16.10;99.90;;;;;;4984251;28;20046;-88
2021/07/11 01:42:21;;;;;;;13.02;7.03;;;16.10;99.90;;;;;;5025765;28;20065;-88
2021/07/11 01:44:53;;;;;;;16.58;6.15;;;16.10;99.90;;;;;;5004432;28;20126;-87
2021/07/11 01:47:23;;;;;;;13.77;7.53;;;16.10;99.90;;;;;;4989444;28;20491;-87
2021/07/11 01:49:52;;;;;;;14.10;5.60;;;16.10;99.90;;;;;;5008680;28;20300;-87
2021/07/11 01:52:24;;;;;;;15.20;6.10;;;16.10;99.90;;;;;;4986538;28;20054;-88
2021/07/11 01:54:53;;;;;;;14.63;6.47;;;16.10;99.90;;;;;;4991677;28;20041;-88
2021/07/11 01:57:25;;;;;;;12.45;6.10;;;16.10;99.90;;;;;;4990635;28;20060;-88
2021/07/11 01:59:55;;;;;;;14.70;6.03;;;16.10;99.90;;;;;;5024580;28;20050;-88
2021/07/11 02:02:31;;;;;;;19.48;6.75;;;16.10;99.90;;;;;;5011536;28;20047;-88
2021/07/11 02:05:13;;;;;;;10.87;5.67;;;16.10;99.90;;;;;;5024051;28;20536;-87
2021/07/11 02:07:43;;;;;;;;;;;16.10;99.90;;;;;;4987696;28;20292;-88
2021/07/11 02:10:21;;;;;;;10.93;5.43;;;16.10;99.90;;;;;;5021569;28;19921;-87
2021/07/11 02:13:06;;;;;;;12.97;6.03;;;16.10;99.90;;;;;;4992345;28;20061;-88
2021/07/11 02:15:44;;;;;;;8.65;5.07;;;16.10;99.90;;;;;;5020186;28;20319;-87
2021/07/11 02:18:17;;;;;;;10.18;6.05;;;16.00;99.90;;;;;;5016559;28;20058;-87
2021/07/11 02:21:00;;;;;;;10.60;5.97;;;16.00;99.90;;;;;;5008521;28;20041;-87
2021/07/11 02:23:33;;;;;;;12.38;6.78;;;16.00;99.90;;;;;;4994811;28;20568;-87
2021/07/11 02:26:11;;;;;;;13.38;6.65;;;16.00;99.90;;;;;;4994095;28;20062;-87
2021/07/11 02:28:43;;;;;;;12.98;6.82;;;16.00;99.90;;;;;;5025296;28;20050;-88
2021/07/11 02:31:13;;;;;;;14.65;7.45;;;16.00;99.90;;;;;;5009043;28;20065;-87
2021/07/11 02:33:45;;;;;;;13.23;7.07;;;16.00;99.90;;;;;;5024042;28;20046;-88
2021/07/11 02:36:19;;;;;;;14.88;6.97;;;16.00;99.90;;;;;;5008507;28;20065;-87
2021/07/11 02:39:10;;;;;;;12.48;7.30;;;16.00;99.90;;;;;;5006374;28;20052;-88
2021/07/11 02:42:00;;;;;;;13.02;6.72;;;16.00;99.90;;;;;;5024355;28;20050;-86
2021/07/11 02:44:35;;;;;;;18.50;7.88;;;15.90;99.90;;;;;;5009155;28;20433;-87
2021/07/11 02:47:17;;;;;;;16.33;8.25;;;15.90;99.90;;;;;;4991665;28;20046;-88
2021/07/11 02:49:53;;;;;;;16.55;8.93;;;15.90;99.90;;;;;;5002779;28;20047;-86
2021/07/11 02:52:26;;;;;;;12.93;7.63;;;15.90;99.90;;;;;;5022714;28;20050;-87
2021/07/11 02:55:00;;;;;;;14.73;7.70;;;15.90;99.90;;;;;;5019255;28;20042;-88
2021/07/11 02:57:30;;;;;;;14.23;7.85;;;15.90;99.90;;;;;;5017287;28;20054;-87
2021/07/11 03:00:05;;;;;;;17.67;8.40;;;15.80;99.90;;;;;;5014110;28;21396;-88
2021/07/11 03:02:40;;;;;;;17.20;8.63;;;15.70;99.90;;;;;;5025328;28;20042;-88
2021/07/11 03:05:13;;;;;;;16.65;8.45;;;15.80;99.90;;;;;;5027973;28;20042;-87
2021/07/11 03:07:44;;;;;;;17.02;8.57;;;15.70;99.90;;;;;;5026887;28;20062;-88
2021/07/11 03:10:15;;;;;;;21.08;10.30;;;15.70;99.90;;;;;;4995410;28;20072;-87
2021/07/11 03:12:50;;;;;;;21.75;8.55;;;15.60;99.90;;;;;;5008194;28;20049;-88
2021/07/11 03:15:19;;;;;;;19.10;9.75;;;15.50;99.90;;;;;;5018930;28;20046;-87
2021/07/11 03:17:55;;;;;;;18.10;9.98;;;15.40;99.90;;;;;;5008578;28;20057;-87
2021/07/11 03:20:30;;;;;;;22.30;11.30;;;15.40;99.90;;;;;;5006391;28;20122;-88
2021/07/11 03:23:00;;;;;;;22.02;10.13;;;15.20;99.90;;;;;;4989109;28;20064;-86
2021/07/11 03:25:30;;;;;;;16.40;9.65;;;15.30;99.90;;;;;;4997743;28;20057;-88
2021/07/11 03:28:06;;;;;;;17.15;10.07;;;14.30;99.90;;;;;;5026650;28;20056;-87
2021/07/11 03:30:45;;;;;;;18.55;10.10;;;14.80;99.90;;;;;;4994724;28;20050;-87
2021/07/11 03:33:16;;;;;;;19.30;10.82;;;15.10;99.90;;;;;;5021580;28;20409;-87
2021/07/11 03:35:47;;;;;;;;;;;15.10;99.90;;;;;;5007869;28;20058;-87
2021/07/11 03:38:21;;;;;;;19.97;11.00;;;15.00;99.90;;;;;;5024062;28;19921;-87
2021/07/11 03:40:55;;;;;;;19.63;9.82;;;15.00;99.90;;;;;;5019840;28;20072;-87
2021/07/11 03:43:27;;;;;;;22.77;12.43;;;14.90;99.90;;;;;;5024512;28;20065;-88
2021/07/11 03:45:58;;;;;;;19.17;10.60;;;14.80;99.90;;;;;;5025001;28;20046;-86
2021/07/11 03:48:34;;;;;;;21.92;10.23;;;14.80;99.90;;;;;;5024479;28;20041;-86
2021/07/11 03:51:04;;;;;;;18.33;10.35;;;14.80;99.90;;;;;;5029512;28;20056;-88
2021/07/11 03:53:36;;;;;;;19.52;9.07;;;14.70;99.90;;;;;;5010552;28;20066;-87
2021/07/11 03:56:09;;;;;;;23.02;9.43;;;14.70;99.90;;;;;;5030300;28;20042;-87
2021/07/11 03:58:43;;;;;;;18.35;7.90;;;14.70;99.90;;;;;;5031352;28;20064;-86
2021/07/11 04:01:15;;;;;;;17.58;9.90;;;14.60;99.90;;;;;;5032302;28;20056;-87
2021/07/11 04:03:47;;;;;;;19.90;9.13;;;14.60;99.90;;;;;;5032697;28;20061;-87
2021/07/11 04:06:31;;;;;;;18.13;9.63;;;14.50;99.90;;;;;;5006844;28;20050;-87
2021/07/11 04:09:02;;;;;;;18.52;10.45;;;14.50;99.90;;;;;;4993353;28;20058;-88
2021/07/11 04:11:35;;;;;;;15.88;9.00;;;14.50;99.90;;;;;;5010299;28;20061;-88
2021/07/11 04:14:19;;;;;;;14.18;8.10;;;14.40;99.90;;;;;;4997629;28;20068;-88
2021/07/11 04:16:55;;;;;;;19.85;9.02;;;14.40;99.90;;;;;;4993989;28;20050;-88
2021/07/11 04:19:41;;;;;;;15.77;7.97;;;14.40;99.90;;;;;;5007735;28;20069;-88
2021/07/11 04:22:15;;;;;;;14.88;8.07;;;14.50;99.90;;;;;;5022286;28;20061;-88
2021/07/11 04:24:49;;;;;;;15.07;7.28;;;14.30;99.90;;;;;;5027511;28;20042;-87
2021/07/11 04:27:27;;;;;;;15.48;8.20;;;14.20;99.90;;;;;;5009556;28;20046;-87
2021/07/11 04:29:56;;;;;;;21.17;9.25;;;14.20;99.90;;;;;;5026826;28;20041;-88
2021/07/11 04:32:25;;;;;;;16.30;8.00;;;14.20;99.90;;;;;;5024989;28;20046;-87
2021/07/11 04:34:53;;;;;;;16.13;8.05;;;14.20;99.90;;;;;;4992488;28;20068;-88
2021/07/11 04:37:22;;;;;;;14.10;7.20;;;14.20;99.90;;;;;;5021099;28;20066;-87
2021/07/11 04:39:53;;;;;;;16.67;8.20;;;14.20;99.90;;;;;;5009284;28;20038;-87
2021/07/11 04:42:21;;;;;;;15.95;7.32;;;14.20;99.90;;;;;;5027011;28;20054;-87
2021/07/11 04:44:50;;;;;;;16.63;8.73;;;14.20;99.90;;;;;;5043252;28;20068;-88
2021/07/11 04:47:19;;;;;;;17.20;7.13;;;14.20;99.90;;;;;;5027877;28;20060;-87
2021/07/11 04:49:49;;;;;;;23.23;9.68;;;14.10;99.90;;;;;;5026302;28;20578;-87
2021/07/11 04:52:16;;;;;;;17.67;8.05;;;14.10;99.90;;;;;;5025215;28;20049;-87
2021/07/11 04:54:47;;;;;;;21.23;7.95;;;14.10;99.90;;;;;;5025924;28;20058;-86
2021/07/11 04:57:16;;;;;;;14.90;7.72;;;14.10;99.90;;;;;;5002888;28;20052;-86
2021/07/11 04:59:46;;;;;;;15.25;8.57;;;14.20;99.90;;;;;;5020223;28;20060;-88
2021/07/11 05:02:13;;;;;;;17.33;9.07;;;14.20;99.90;;;;;;5009818;28;20077;-88
2021/07/11 05:04:46;;;;;;;;;;;14.40;99.90;;;;;;5027067;28;20061;-88
2021/07/11 05:07:27;;;;;;;15.50;7.03;;;14.30;99.90;;;;;;4995442;28;19928;-88
2021/07/11 05:09:56;;;;;;;17.23;8.55;;;14.30;99.90;;;;;;5008478;28;20057;-88
2021/07/11 05:12:26;;;;;;;21.02;10.07;;;14.40;99.90;;;;;;5024934;28;20085;-87
2021/07/11 05:14:55;;;;;;;18.10;10.55;;;14.20;99.90;;;;;;5010727;28;20054;-88
2021/07/11 05:17:27;;;;;;;24.20;10.65;;;14.50;99.90;;;;;;5020595;28;20034;-87
2021/07/11 05:19:58;;;;;;;21.52;11.88;;;14.50;99.90;;;;;;5024657;28;20292;-87
2021/07/11 05:22:26;;;;;;;18.70;9.45;;;14.60;99.90;;;;;;4970128;28;20057;-89
2021/07/11 05:24:55;;;;;;;22.17;10.95;;;14.60;99.90;;;;;;4986669;28;20058;-87
2021/07/11 05:27:27;;;;;;;18.00;10.43;;;14.60;99.90;;;;;;5009344;28;20057;-88
2021/07/11 05:29:54;;;;;;;22.40;11.65;;;14.70;99.90;;;;;;5020857;28;20045;-87
2021/07/11 05:32:24;;;;;;;23.15;11.40;;;14.80;99.90;;;;;;5019066;28;20051;-88
2021/07/11 05:34:53;;;;;;;21.65;10.88;;;14.80;99.90;;;;;;5020311;28;20060;-88
2021/07/11 05:37:20;;;;;;;27.85;12.50;;;14.90;99.90;;;;;;5021267;28;20046;-87
2021/07/11 05:39:50;;;;;;;22.25;10.98;;;14.90;99.90;;;;;;5019685;28;20125;-88
2021/07/11 05:42:19;;;;;;;21.48;10.25;;;15.10;99.90;;;;;;5019224;28;20065;-88
2021/07/11 05:44:47;;;;;;;19.25;9.25;;;15.10;99.90;;;;;;5017929;28;20075;-87
2021/07/11 05:47:14;;;;;;;20.27;10.48;;;15.20;99.90;;;;;;5015048;28;20046;-88
2021/07/11 05:49:42;;;;;;;21.75;10.02;;;15.30;99.90;;;;;;5000515;28;20058;-89
2021/07/11 05:52:11;;;;;;;19.88;9.27;;;15.40;99.90;;;;;;4973589;28;20042;-90
2021/07/11 05:54:39;;;;;;;20.40;8.93;;;15.40;99.90;;;;;;5000455;28;20122;-87
2021/07/11 05:57:06;;;;;;;17.40;9.20;;;14.90;99.90;;;;;;4999504;28;20057;-88
2021/07/11 05:59:37;;;;;;;19.02;9.75;;;15.60;99.90;;;;;;4998195;28;20065;-89
2021/07/11 06:02:05;;;;;;;19.30;9.65;;;15.70;99.90;;;;;;4997952;28;20057;-88
2021/07/11 06:04:33;;;;;;;19.90;10.23;;;15.70;99.90;;;;;;4996551;28;20054;-88
2021/07/11 06:07:02;;;;;;;28.60;9.63;;;15.80;99.90;;;;;;5004517;28;20054;-87
2021/07/11 06:09:30;;;;;;;18.00;8.60;;;15.90;99.90;;;;;;5018467;28;20066;-88
2021/07/11 06:12:01;;;;;;;21.30;8.50;;;16.00;99.90;;;;;;4982968;28;20053;-87
2021/07/11 06:14:31;;;;;;;17.08;9.23;;;16.10;99.90;;;;;;5024744;28;20125;-87
2021/07/11 06:17:00;;;;;;;17.08;9.00;;;16.10;99.90;;;;;;5025458;28;20063;-87
2021/07/11 06:19:29;;;;;;;19.73;8.88;;;16.20;99.90;;;;;;5019055;28;20050;-88
2021/07/11 06:21:58;;;;;;;16.40;8.70;;;16.20;99.90;;;;;;5002907;28;20054;-88
2021/07/11 06:24:28;;;;;;;20.23;9.60;;;16.20;99.90;;;;;;5002322;28;20045;-88
2021/07/11 06:27:02;;;;;;;17.23;8.77;;;16.30;99.90;;;;;;5000857;28;20053;-87
2021/07/11 06:29:33;;;;;;;20.25;8.98;;;16.30;99.90;;;;;;5018116;28;20547;-87
2021/07/11 06:32:04;;;;;;;18.92;10.07;;;16.30;99.90;;;;;;5016768;28;20050;-88
2021/07/11 06:34:32;;;;;;;15.25;8.18;;;16.40;99.90;;;;;;5001655;28;20053;-87
2021/07/11 06:37:00;;;;;;;16.60;7.90;;;16.50;99.90;;;;;;5016572;28;20054;-87
2021/07/11 06:39:30;;;;;;;20.25;8.55;;;16.60;99.90;;;;;;5015676;28;20046;-88
2021/07/11 06:42:00;;;;;;;17.17;8.60;;;16.70;99.90;;;;;;5019981;28;20057;-88
2021/07/11 06:44:31;;;;;;;15.87;7.73;;;16.80;99.90;;;;;;4985319;28;20413;-88
2021/07/11 06:47:03;;;;;;;19.17;8.63;;;16.80;99.90;;;;;;5010608;28;20296;-88
2021/07/11 06:49:36;;;;;;;16.92;8.63;;;16.80;99.90;;;;;;5029765;28;20048;-87
2021/07/11 06:52:07;;;;;;;15.20;7.22;;;16.90;99.90;;;;;;5015517;28;20046;-86
2021/07/11 06:54:35;;;;;;;18.90;8.48;;;17.00;99.90;;;;;;5005384;28;20066;-88
2021/07/11 06:57:07;;;;;;;14.43;7.60;;;17.10;99.90;;;;;;4991011;28;20417;-89
2021/07/11 06:59:38;;;;;;;14.13;8.10;;;17.10;99.90;;;;;;4987181;28;20798;-88
2021/07/11 07:02:09;;;;;;;13.38;6.85;;;17.20;99.90;;;;;;4991458;28;20523;-87
2021/07/11 07:04:44;;;;;;;12.38;6.85;;;17.30;99.90;;;;;;5024073;28;20503;-87
2021/07/11 07:07:13;;;;;;;14.98;6.75;;;17.40;99.90;;;;;;5019967;28;20045;-87
2021/07/11 07:09:41;;;;;;;11.85;6.20;;;17.40;99.90;;;;;;4997720;28;20752;-88
2021/07/11 07:12:09;;;;;;;11.73;6.80;;;17.50;99.90;;;;;;5000794;28;20057;-88
2021/07/11 07:14:38;;;;;;;12.55;7.32;;;17.60;99.90;;;;;;5016343;28;20057;-87
2021/07/11 07:17:07;;;;;;;10.52;6.38;;;17.70;99.90;;;;;;4989639;28;20053;-88
2021/07/11 07:19:39;;;;;;;9.23;4.70;;;17.70;99.90;;;;;;5031738;28;20076;-88
2021/07/11 07:22:08;;;;;;;13.70;6.55;;;17.80;99.90;;;;;;5003508;28;20052;-88
2021/07/11 07:24:39;;;;;;;9.80;4.78;;;17.80;99.90;;;;;;5017148;28;20049;-87
2021/07/11 07:27:09;;;;;;;11.43;5.35;;;17.70;99.90;;;;;;5018189;28;20066;-88
2021/07/11 07:29:37;;;;;;;11.98;6.50;;;17.70;99.90;;;;;;5019127;28;20068;-87
2021/07/11 07:32:06;;;;;;;11.00;7.07;;;17.70;99.90;;;;;;4999553;28;20450;-87
2021/07/11 07:34:34;;;;;;;17.00;5.25;;;17.70;99.90;;;;;;5000955;28;20046;-88
2021/07/11 07:37:09;;;;;;;9.50;4.97;;;17.80;99.90;;;;;;5003402;28;20053;-88
2021/07/11 07:39:40;;;;;;;9.25;4.43;;;17.80;99.90;;;;;;5019371;28;20477;-87
2021/07/11 07:42:11;;;;;;;7.68;4.22;;;17.80;99.90;;;;;;5018198;28;20042;-88
2021/07/11 07:44:40;;;;;;;10.48;4.22;;;17.90;99.90;;;;;;5015426;28;20045;-88
2021/07/11 07:47:08;;;;;;;6.07;3.22;;;17.90;99.90;;;;;;5015489;28;20405;-88
2021/07/11 07:49:38;;;;;;;7.83;5.00;;;17.90;99.90;;;;;;5005185;28;20054;-87
2021/07/11 07:52:07;;;;;;;8.23;3.85;;;18.00;99.90;;;;;;5000811;28;20086;-88
2021/07/11 07:54:35;;;;;;;11.55;4.13;;;18.10;99.90;;;;;;5010134;28;20053;-88
2021/07/11 07:57:03;;;;;;;8.48;3.83;;;18.20;99.90;;;;;;4999223;28;20057;-88
2021/07/11 07:59:35;;;;;;;7.05;3.30;;;18.20;99.90;;;;;;5012682;28;20071;-90
2021/07/11 08:02:04;;;;;;;8.57;4.63;;;18.30;99.90;;;;;;5003308;28;20045;-87
2021/07/11 08:04:34;;;;;;;9.48;3.53;;;18.40;99.90;;;;;;4995747;28;20057;-87
2021/07/11 08:07:03;;;;;;;6.55;3.35;;;18.50;99.90;;;;;;4998986;28;20050;-87
2021/07/11 08:09:32;;;;;;;5.53;2.80;;;18.50;99.90;;;;;;4988235;28;20066;-85
2021/07/11 08:12:03;;;;;;;6.43;3.33;;;18.70;99.90;;;;;;4999688;28;20060;-88
2021/07/11 08:14:32;;;;;;;6.72;2.90;;;18.80;99.90;;;;;;4986452;28;20061;-87
2021/07/11 08:17:00;;;;;;;6.97;2.78;;;18.80;99.90;;;;;;5007732;28;20370;-89
2021/07/11 08:19:28;;;;;;;9.10;4.38;;;18.80;99.90;;;;;;4980510;28;20053;-88
2021/07/11 08:21:57;;;;;;;7.82;3.00;;;18.90;99.90;;;;;;4979549;28;20512;-88
2021/07/11 08:24:25;;;;;;;8.02;3.40;;;19.00;99.90;;;;;;4996389;28;20061;-88
2021/07/11 08:26:53;;;;;;;6.25;2.72;;;19.00;99.90;;;;;;4998074;28;20047;-87
2021/07/11 08:29:21;;;;;;;7.35;3.08;;;18.90;99.90;;;;;;5020217;28;20050;-85
2021/07/11 08:31:50;;;;;;;6.22;3.50;;;19.00;99.90;;;;;;5024851;28;20048;-87
2021/07/11 08:34:18;;;;;;;6.40;3.25;;;19.00;99.90;;;;;;4981255;28;20057;-87
2021/07/11 08:36:46;;;;;;;5.35;2.88;;;19.10;99.90;;;;;;4971112;28;20053;-88
2021/07/11 08:39:19;;;;;;;5.70;2.60;;;19.20;99.90;;;;;;5010559;28;20038;-87
2021/07/11 08:41:53;;;;;;;6.28;2.97;;;19.20;99.90;;;;;;5009336;28;20042;-88
2021/07/11 08:44:22;;;;;;;10.63;3.03;;;19.40;99.90;;;;;;5007015;28;20042;-88
2021/07/11 08:46:49;;;;;;;8.90;2.47;;;19.50;99.90;;;;;;5006752;28;20067;-88
2021/07/11 08:49:18;;;;;;;5.57;2.65;;;19.70;99.90;;;;;;5007933;28;20126;-88
2021/07/11 08:51:48;;;;;;;5.85;2.83;;;20.00;99.90;;;;;;5007824;28;20065;-86
2021/07/11 08:54:17;;;;;;;4.20;2.33;;;20.20;99.90;;;;;;5001758;28;20045;-86
2021/07/11 08:56:45;;;;;;;4.03;2.47;;;20.30;99.90;;;;;;5008473;28;20046;-89
2021/07/11 08:59:14;;;;;;;7.68;3.00;;;20.40;99.90;;;;;;5011655;28;20552;-88
2021/07/11 09:01:42;;;;;;;6.57;3.30;;;20.40;99.90;;;;;;5011759;28;20413;-87
2021/07/11 09:04:11;;;;;;;4.72;2.50;;;20.50;99.90;;;;;;5007788;28;20872;-86
2021/07/11 09:06:55;;;;;;;6.85;3.05;;;20.40;99.90;;;;;;5008941;28;20064;-85
2021/07/11 09:09:36;;;;;;;5.10;2.75;;;20.30;99.90;;;;;;5011494;28;20274;-86
2021/07/11 09:12:08;;;;;;;6.18;3.25;;;20.30;99.90;;;;;;4986306;28;20363;-85
2021/07/11 09:14:59;;;;;;;5.95;2.80;;;20.30;99.90;;;;;;5009452;28;20049;-86
2021/07/11 09:17:31;;;;;;;;;;;20.30;99.90;;;;;;5004467;28;20041;-86
2021/07/11 09:20:00;;;;;;;9.00;3.05;;;20.40;99.90;;;;;;5002287;28;19929;-87
2021/07/11 09:22:28;;;;;;;6.00;2.70;;;20.50;99.90;;;;;;4989009;28;20054;-86
2021/07/11 09:25:00;;;;;;;4.30;2.55;;;20.60;99.90;;;;;;5008912;28;20046;-86
2021/07/11 09:27:34;;;;;;;8.48;3.00;;;20.70;99.90;;;;;;5014199;28;20568;-85
2021/07/11 09:30:05;;;;;;;6.30;3.13;;;20.90;99.90;;;;;;5015206;28;20042;-85
2021/07/11 09:32:41;;;;;;;5.90;2.05;;;21.00;99.90;;;;;;4984475;28;20080;-86
2021/07/11 09:35:13;;;;;;;6.43;2.72;;;21.20;99.90;;;;;;5015313;28;20054;-86
2021/07/11 09:37:44;;;;;;;4.20;2.60;;;21.30;99.90;;;;;;5021688;28;20306;-86
2021/07/11 09:40:16;;;;;;;5.97;2.43;;;21.50;99.90;;;;;;5021168;28;20061;-87
2021/07/11 09:42:48;;;;;;;6.60;2.30;;;21.60;99.90;;;;;;5024107;28;20045;-86
2021/07/11 09:45:24;;;;;;;7.72;3.22;;;21.70;99.90;;;;;;5009971;28;20049;-85
2021/07/11 09:47:56;;;;;;;4.15;2.60;;;21.70;99.90;;;;;;5007428;28;20496;-87
2021/07/11 09:50:25;;;;;;;7.07;3.42;;;21.70;99.90;;;;;;4988838;28;20061;-86
2021/07/11 09:52:55;;;;;;;4.20;2.50;;;21.70;99.90;;;;;;5001338;28;20054;-88
2021/07/11 09:55:26;;;;;;;5.13;2.35;;;21.70;99.90;;;;;;5002209;28;20049;-86
2021/07/11 09:58:08;;;;;;;4.45;2.40;;;21.80;99.90;;;;;;4983603;28;20046;-88
2021/07/11 10:00:37;;;;;;;;;;;21.70;99.90;;;;;;5004158;28;20054;-86
2021/07/11 10:03:14;;;;;;;3.53;2.00;;;21.60;99.90;;;;;;5003950;28;19925;-89
2021/07/11 10:05:44;;;;;;;6.55;2.47;;;21.60;99.90;;;;;;5004361;28;20057;-86
2021/07/11 10:08:13;;;;;;;7.45;2.60;;;21.60;99.90;;;;;;5009435;28;20061;-85
2021/07/11 10:10:42;;;;;;;4.53;1.67;;;21.60;99.90;;;;;;5001263;28;20061;-87
2021/07/11 10:13:12;;;;;;;12.37;3.77;;;21.50;99.90;;;;;;5007246;28;20068;-86
2021/07/11 10:15:41;;;;;;;5.32;2.85;;;21.50;99.90;;;;;;4996990;28;20058;-86
2021/07/11 10:18:13;;;;;;;4.13;2.90;;;21.40;99.90;;;;;;5005222;28;20054;-85
2021/07/11 10:20:47;;;;;;;7.03;3.00;;;21.30;99.90;;;;;;5007037;28;20054;-85
2021/07/11 10:23:26;;;;;;;4.13;2.75;;;21.00;99.90;;;;;;5010116;28;20054;-85
2021/07/11 10:26:07;;;;;;;4.10;2.60;;;20.90;99.90;;;;;;5000626;28;20042;-85
2021/07/11 10:28:43;;;;;;;8.27;2.67;;;20.80;99.90;;;;;;5028560;28;20053;-86
2021/07/11 10:31:26;;;;;;;5.43;2.85;;;20.70;99.90;;;;;;5014893;28;20481;-86
2021/07/11 10:33:57;;;;;;;6.93;3.15;;;20.60;99.90;;;;;;5011686;28;20049;-86
2021/07/11 10:36:30;;;;;;;5.72;3.35;;;20.60;99.90;;;;;;5012043;28;20046;-85
2021/07/11 10:39:00;;;;;;;7.28;3.13;;;20.70;99.90;;;;;;5000310;28;20049;-85
2021/07/11 10:41:32;;;;;;;4.35;2.67;;;20.80;99.90;;;;;;5009477;28;20053;-86
2021/07/11 10:44:04;;;;;;;4.70;2.45;;;20.80;99.90;;;;;;5003726;28;20481;-85
2021/07/11 10:46:58;;;;;;;6.68;2.63;;;20.90;99.90;;;;;;5009204;28;20042;-85
2021/07/11 10:49:49;;;;;;;8.90;2.97;;;20.90;99.90;;;;;;5008218;28;20046;-85
2021/07/11 10:52:24;;;;;;;6.18;2.90;;;20.90;99.90;;;;;;5001489;28;20142;-85
2021/07/11 10:54:54;;;;;;;10.20;3.15;;;20.90;99.90;;;;;;5005730;28;20038;-86
2021/07/11 10:57:37;;;;;;;6.82;2.75;;;21.00;99.90;;;;;;5005627;28;20525;-86
2021/07/11 11:00:09;;;;;;;6.78;2.78;;;21.10;99.90;;;;;;5002629;28;20462;-87
2021/07/11 11:02:41;;;;;;;9.10;3.35;;;21.10;99.90;;;;;;5004280;28;20054;-86
2021/07/11 11:05:16;;;;;;;4.45;2.45;;;21.10;99.90;;;;;;5007769;28;20060;-85
2021/07/11 11:07:55;;;;;;;4.13;2.70;;;21.20;99.90;;;;;;5008503;28;20037;-85
2021/07/11 11:10:32;;;;;;;4.68;2.58;;;21.30;99.90;;;;;;5004484;28;20065;-85
2021/07/11 11:13:07;;;;;;;5.93;2.85;;;21.40;99.90;;;;;;4999866;28;20030;-86
2021/07/11 11:15:41;;;;;;;4.80;2.53;;;21.50;99.90;;;;;;5008390;28;20037;-88
2021/07/11 11:18:33;;;;;;;4.95;2.20;;;21.70;99.90;;;;;;5004091;28;20781;-86
2021/07/11 11:21:17;;;;;;;3.22;1.88;;;21.80;99.90;;;;;;5006426;28;20038;-87
2021/07/11 11:23:53;;;;;;;5.97;1.95;;;22.20;99.90;;;;;;5001382;28;20057;-87
2021/07/11 11:26:28;;;;;;;5.38;2.63;;;22.40;99.90;;;;;;5000662;28;20046;-86
2021/07/11 11:28:58;;;;;;;3.38;2.08;;;22.60;99.90;;;;;;5004034;28;20491;-86
2021/07/11 11:31:28;;;;;;;4.95;2.17;;;22.70;99.90;;;;;;5003258;28;20042;-87
2021/07/11 11:34:05;;;;;;;8.27;3.27;;;22.90;99.90;;;;;;5007335;28;20038;-86
2021/07/11 11:36:46;;;;;;;4.97;2.10;;;23.00;99.90;;;;;;4992616;28;20054;-86
2021/07/11 11:39:18;;;;;;;4.18;2.47;;;23.10;99.90;;;;;;5006455;28;20059;-87
2021/07/11 11:41:47;;;;;;;4.22;2.40;;;23.30;99.90;;;;;;4998705;28;20058;-86
2021/07/11 11:44:20;;;;;;;4.55;2.05;;;23.40;99.90;;;;;;4990614;28;20041;-86
2021/07/11 11:46:55;;;;;;;3.28;2.20;;;23.40;99.90;;;;;;5015386;28;20053;-85
2021/07/11 11:49:30;;;;;;;6.22;2.78;;;23.50;99.90;;;;;;5009400;28;20054;-86
2021/07/11 11:52:01;;;;;;;6.25;2.85;;;23.50;99.90;;;;;;5011421;28;20381;-86
2021/07/11 11:54:47;;;;;;;6.43;2.17;;;23.50;99.90;;;;;;5006213;28;20050;-86
2021/07/11 11:57:31;;;;;;;5.72;2.83;;;23.60;99.90;;;;;;5007584;28;20042;-86
2021/07/11 12:00:01;;;;;;;4.20;1.77;;;23.70;99.70;;;;;;5007750;28;20041;-87
2021/07/11 12:02:36;;;;;;;4.47;1.73;;;23.80;99.90;;;;;;5010227;28;20050;-87
2021/07/11 12:05:12;;;;;;;4.45;2.20;;;24.00;99.60;;;;;;4993516;28;20199;-86
2021/07/11 12:07:41;;;;;;;7.18;2.15;;;24.10;99.30;;;;;;5006305;28;20413;-86
2021/07/11 12:10:14;;;;;;;5.10;1.88;;;24.20;99.40;;;;;;5008819;28;20046;-86
2021/07/11 12:12:53;;;;;;;7.45;1.92;;;24.30;98.30;;;;;;5007499;28;20050;-86
2021/07/11 12:15:32;;;;;;;4.30;2.05;;;24.50;98.50;;;;;;4988074;28;20049;-87
2021/07/11 12:18:07;;;;;;;3.03;1.67;;;24.80;98.50;;;;;;5005111;28;20413;-86
2021/07/11 12:20:52;;;;;;;3.20;2.00;;;25.00;98.40;;;;;;5012129;28;20057;-88
2021/07/11 12:23:23;;;;;;;4.88;1.80;;;25.10;97.90;;;;;;5008432;28;20049;-87
2021/07/11 12:26:03;;;;;;;5.95;1.63;;;25.40;97.80;;;;;;5003982;28;20046;-86
2021/07/11 12:28:53;;;;;;;7.60;1.83;;;25.70;97.00;;;;;;5003951;28;20054;-87
2021/07/11 12:31:23;;;;;;;2.50;1.38;;;25.80;96.30;;;;;;5006838;28;20382;-87
2021/07/11 12:34:00;;;;;;;2.73;1.50;;;25.90;96.40;;;;;;5002066;28;20393;-88
2021/07/11 12:36:30;;;;;;;3.10;1.50;;;25.90;95.40;;;;;;5004225;28;20042;-87
2021/07/11 12:38:59;;;;;;;4.00;1.70;;;25.90;95.90;;;;;;5003668;28;20443;-86
2021/07/11 12:41:36;;;;;;;2.47;1.50;;;26.10;95.50;;;;;;5007270;28;20046;-87
2021/07/11 12:44:05;;;;;;;4.85;1.55;;;26.10;94.40;;;;;;5002111;28;20049;-88
2021/07/11 12:46:34;;;;;;;4.20;1.30;;;26.20;95.10;;;;;;5004043;28;20049;-89
2021/07/11 12:49:14;;;;;;;4.20;1.55;;;26.20;94.80;;;;;;5004893;28;20054;-88
2021/07/11 12:51:53;;;;;;;2.65;1.58;;;26.20;94.40;;;;;;5002541;28;20677;-86
2021/07/11 12:54:23;;;;;;;3.97;2.75;;;26.10;94.00;;;;;;5006280;28;20034;-88
2021/07/11 12:56:54;;;;;;;2.85;1.60;;;25.60;94.20;;;;;;5002050;28;20054;-86
2021/07/11 12:59:44;;;;;;;3.10;1.40;;;25.70;94.60;;;;;;5003403;28;20041;-88
2021/07/11 13:02:17;;;;;;;2.03;1.20;;;25.80;93.60;;;;;;5005890;28;20054;-85
2021/07/11 13:04:57;;;;;;;4.60;1.63;;;25.90;94.60;;;;;;5001693;28;20057;-86
2021/07/11 13:07:29;;;;;;;2.80;1.63;;;25.90;94.20;;;;;;5025920;28;20046;-86